createdAt,value
2023-05-21T00:01:29.758Z,13.40
2023-05-21T00:03:59.708Z,11.77
2023-05-21T00:06:28.285Z,12.50
2023-05-21T00:08:58.014Z,12.27
2023-05-21T00:11:26.264Z,12.30
2023-05-21T00:13:54.542Z,12.93
2023-05-21T00:16:22.867Z,11.13
2023-05-21T00:18:51.218Z,10.87
2023-05-21T00:21:22.769Z,11.27
2023-05-21T00:23:51.066Z,11.20
2023-05-21T00:26:21.568Z,12.17
2023-05-21T00:28:49.808Z,12.70
2023-05-21T00:31:19.174Z,12.20
2023-05-21T00:33:47.515Z,12.07
2023-05-21T00:36:15.824Z,11.57
2023-05-21T00:38:45.986Z,11.63
2023-05-21T00:41:14.480Z,11.43
2023-05-21T00:43:44.472Z,12.37
2023-05-21T00:46:23.114Z,11.03
2023-05-21T00:48:51.998Z,11.10
2023-05-21T00:51:21.761Z,11.50
2023-05-21T00:53:51.391Z,12.20
2023-05-21T00:56:20.035Z,11.70
2023-05-21T00:58:49.800Z,12.33
2023-05-21T01:01:18.488Z,11.50
2023-05-21T01:03:48.744Z,12.33
2023-05-21T01:06:17.155Z,11.87
2023-05-21T01:08:45.422Z,12.30
2023-05-21T01:11:15.046Z,12.80
2023-05-21T01:13:43.728Z,13.47
2023-05-21T01:16:14.194Z,12.90
2023-05-21T01:18:43.728Z,12.20
2023-05-21T01:21:12.298Z,13.50
2023-05-21T01:23:41.957Z,13.90
2023-05-21T01:26:12.836Z,10.90
2023-05-21T01:28:41.082Z,7.47
2023-05-21T01:31:15.530Z,12.77
2023-05-21T01:33:48.776Z,8.17
2023-05-21T01:36:21.796Z,8.47
2023-05-21T01:38:54.254Z,11.67
2023-05-21T01:41:22.877Z,11.50
2023-05-21T01:43:51.834Z,14.87
2023-05-21T01:46:25.725Z,7.80
2023-05-21T01:48:54.531Z,8.03
2023-05-21T01:51:22.764Z,7.20
2023-05-21T01:53:52.369Z,8.00
2023-05-21T01:56:23.064Z,8.23
2023-05-21T01:58:51.330Z,7.33
2023-05-21T02:01:20.244Z,8.00
2023-05-21T02:03:48.625Z,7.50
2023-05-21T02:06:17.107Z,8.10
2023-05-21T02:08:45.660Z,8.30
2023-05-21T02:11:15.294Z,7.77
2023-05-21T02:13:46.037Z,8.30
2023-05-21T02:16:16.278Z,8.90
2023-05-21T02:18:44.695Z,7.17
2023-05-21T02:21:12.991Z,11.77
2023-05-21T02:23:42.178Z,7.23
2023-05-21T02:26:10.431Z,8.30
2023-05-21T02:28:40.478Z,7.60
2023-05-21T02:31:08.762Z,7.90
2023-05-21T02:33:37.065Z,7.53
2023-05-21T02:36:05.930Z,9.33
2023-05-21T02:38:34.193Z,14.60
2023-05-21T02:41:02.461Z,14.97
2023-05-21T02:43:30.675Z,15.63
2023-05-21T02:46:00.435Z,13.60
2023-05-21T02:48:31.792Z,15.63
2023-05-21T02:51:00.199Z,16.40
2023-05-21T02:53:28.482Z,8.77
2023-05-21T02:55:57.411Z,14.80
2023-05-21T02:58:25.703Z,14.43
2023-05-21T03:00:54.410Z,9.87
2023-05-21T03:03:24.105Z,14.33
2023-05-21T03:05:53.017Z,15.83
2023-05-21T03:08:21.356Z,12.00
2023-05-21T03:10:49.577Z,16.40
2023-05-21T03:13:17.895Z,16.33
2023-05-21T03:15:46.617Z,8.60
2023-05-21T03:18:14.905Z,15.17
2023-05-21T03:20:45.428Z,15.80
2023-05-21T03:23:16.428Z,16.60
2023-05-21T03:25:45.998Z,9.83
2023-05-21T03:28:14.358Z,11.47
2023-05-21T03:30:46.236Z,14.23
2023-05-21T03:33:15.468Z,17.17
2023-05-21T03:35:45.045Z,16.20
2023-05-21T03:38:13.253Z,17.33
2023-05-21T03:40:41.508Z,16.13
2023-05-21T03:43:09.837Z,16.87
2023-05-21T03:45:38.614Z,8.40
2023-05-21T03:48:07.627Z,13.83
2023-05-21T03:50:36.684Z,13.73
2023-05-21T03:53:06.379Z,9.43
2023-05-21T03:55:34.800Z,8.83
2023-05-21T03:58:03.303Z,16.13
2023-05-21T04:00:32.538Z,16.60
2023-05-21T04:03:00.963Z,8.50
2023-05-21T04:05:29.205Z,8.20
2023-05-21T04:07:58.687Z,9.13
2023-05-21T04:10:28.420Z,10.60
2023-05-21T04:12:56.626Z,10.30
2023-05-21T04:15:24.919Z,9.97
2023-05-21T04:17:53.381Z,7.70
2023-05-21T04:20:22.864Z,8.30
2023-05-21T04:22:51.717Z,9.30
2023-05-21T04:25:20.340Z,8.57
2023-05-21T04:27:50.123Z,17.60
2023-05-21T04:30:19.982Z,8.23
2023-05-21T04:32:48.385Z,9.50
2023-05-21T04:35:17.073Z,10.67
2023-05-21T04:37:45.924Z,10.27
2023-05-21T04:40:18.097Z,8.50
2023-05-21T04:42:48.266Z,10.03
2023-05-21T04:45:18.455Z,9.50
2023-05-21T04:47:47.886Z,10.70
2023-05-21T04:50:16.195Z,9.57
2023-05-21T04:52:45.611Z,19.03
2023-05-21T04:55:13.903Z,8.47
2023-05-21T04:57:42.245Z,17.80
2023-05-21T05:00:11.940Z,9.50
2023-05-21T05:02:41.790Z,10.47
2023-05-21T05:05:10.465Z,11.47
2023-05-21T05:07:38.765Z,11.33
2023-05-21T05:10:07.475Z,15.70
2023-05-21T05:12:35.833Z,9.77
2023-05-21T05:15:04.102Z,10.47
2023-05-21T05:17:32.747Z,9.60
2023-05-21T05:20:02.398Z,9.50
2023-05-21T05:22:30.694Z,11.07
2023-05-21T05:24:58.902Z,10.10
2023-05-21T05:27:27.194Z,8.73
2023-05-21T05:29:55.461Z,10.20
2023-05-21T05:32:23.770Z,10.07
2023-05-21T05:34:52.025Z,9.90
2023-05-21T05:37:21.614Z,10.80
2023-05-21T05:39:49.869Z,10.00
2023-05-21T05:42:18.079Z,9.60
2023-05-21T05:44:46.308Z,11.13
2023-05-21T05:47:14.498Z,9.37
2023-05-21T05:49:42.752Z,10.63
2023-05-21T05:52:10.983Z,10.13
2023-05-21T05:54:40.604Z,9.37
2023-05-21T05:57:08.859Z,9.30
2023-05-21T05:59:37.217Z,10.50
2023-05-21T06:02:05.660Z,9.20
2023-05-21T06:04:33.957Z,8.50
2023-05-21T06:07:02.522Z,10.20
2023-05-21T06:09:30.750Z,10.00
2023-05-21T06:12:00.287Z,9.53
2023-05-21T06:14:28.660Z,9.90
2023-05-21T06:16:56.941Z,11.00
2023-05-21T06:19:25.383Z,10.43
2023-05-21T06:21:53.674Z,8.37
2023-05-21T06:24:22.475Z,9.77
2023-05-21T06:26:50.806Z,8.73
2023-05-21T06:29:20.557Z,9.93
2023-05-21T06:31:48.811Z,9.27
2023-05-21T06:34:17.062Z,10.67
2023-05-21T06:36:45.858Z,10.13
2023-05-21T06:39:14.119Z,10.37
2023-05-21T06:41:42.365Z,9.60
2023-05-21T06:44:11.051Z,14.87
2023-05-21T06:46:40.639Z,10.77
2023-05-21T06:49:08.861Z,9.00
2023-05-21T06:51:37.133Z,12.13
2023-05-21T06:54:05.588Z,9.27
2023-05-21T06:56:33.854Z,11.37
2023-05-21T06:59:02.148Z,10.17
2023-05-21T07:01:30.629Z,10.47
2023-05-21T07:04:00.334Z,15.37
2023-05-21T07:06:28.595Z,13.77
2023-05-21T07:08:56.829Z,16.63
2023-05-21T07:11:28.654Z,12.80
2023-05-21T07:13:56.908Z,9.80
2023-05-21T07:16:25.197Z,14.77
2023-05-21T07:18:53.460Z,11.63
2023-05-21T07:21:23.110Z,10.30
2023-05-21T07:23:51.339Z,10.97
2023-05-21T07:26:19.648Z,10.07
2023-05-21T07:28:48.038Z,9.93
2023-05-21T07:31:16.419Z,9.20
2023-05-21T07:33:44.733Z,9.13
2023-05-21T07:36:13.010Z,8.83
2023-05-21T07:38:42.999Z,9.43
2023-05-21T07:41:11.282Z,9.50
2023-05-21T07:43:40.458Z,10.43
2023-05-21T07:46:08.872Z,11.93
2023-05-21T07:48:37.123Z,9.33
2023-05-21T07:51:05.536Z,9.53
2023-05-21T07:53:33.934Z,11.80
2023-05-21T07:56:03.525Z,12.10
2023-05-21T07:58:32.562Z,10.23
2023-05-21T08:01:01.881Z,10.27
2023-05-21T08:03:31.344Z,10.13
2023-05-21T08:05:59.765Z,12.60
2023-05-21T08:08:28.011Z,10.83
2023-05-21T08:10:56.506Z,11.33
2023-05-21T08:13:26.240Z,10.43
2023-05-21T08:15:54.647Z,10.10
2023-05-21T08:18:23.891Z,11.50
2023-05-21T08:20:52.334Z,13.00
2023-05-21T08:23:20.631Z,12.20
2023-05-21T08:25:48.893Z,10.37
2023-05-21T08:28:17.119Z,9.33
2023-05-21T08:30:47.174Z,13.10
2023-05-21T08:33:15.512Z,15.90
2023-05-21T08:35:43.739Z,13.30
2023-05-21T08:38:12.051Z,12.60
2023-05-21T08:40:41.470Z,15.43
2023-05-21T08:43:13.710Z,13.67
2023-05-21T08:45:44.021Z,15.40
2023-05-21T08:48:13.744Z,13.20
2023-05-21T08:50:42.769Z,16.60
2023-05-21T08:53:19.901Z,17.70
2023-05-21T08:55:57.105Z,15.10
2023-05-21T08:58:25.639Z,13.10
2023-05-21T09:00:53.901Z,12.80
2023-05-21T09:03:24.321Z,13.87
2023-05-21T09:05:53.422Z,12.83
2023-05-21T09:08:23.641Z,12.90
2023-05-21T09:10:52.912Z,12.93
2023-05-21T09:13:21.890Z,15.20
2023-05-21T09:15:51.532Z,13.73
2023-05-21T09:18:19.783Z,14.40
2023-05-21T09:20:49.371Z,13.97
2023-05-21T09:23:19.358Z,16.53
2023-05-21T09:25:48.189Z,13.20
2023-05-21T09:28:17.336Z,12.50
2023-05-21T09:30:46.404Z,13.10
2023-05-21T09:33:14.871Z,13.20
2023-05-21T09:35:47.632Z,13.43
2023-05-21T09:38:17.361Z,13.10
2023-05-21T09:40:47.364Z,12.50
2023-05-21T09:43:16.645Z,13.10
2023-05-21T09:45:53.002Z,11.90
2023-05-21T09:48:36.530Z,12.63
2023-05-21T09:51:15.104Z,13.07
2023-05-21T09:53:50.063Z,13.73
2023-05-21T09:56:19.131Z,14.03
2023-05-21T09:58:48.003Z,12.17
2023-05-21T10:01:16.762Z,14.90
2023-05-21T10:03:49.308Z,12.60
2023-05-21T10:06:20.355Z,12.17
2023-05-21T10:08:50.327Z,12.13
2023-05-21T10:11:19.180Z,17.93
2023-05-21T10:13:50.714Z,12.97
2023-05-21T10:16:19.766Z,14.17
2023-05-21T10:18:49.613Z,12.87
2023-05-21T10:21:18.651Z,13.87
2023-05-21T10:23:47.783Z,13.83
2023-05-21T10:26:17.952Z,12.90
2023-05-21T10:28:46.705Z,12.83
2023-05-21T10:31:15.067Z,13.10
2023-05-21T10:33:43.865Z,15.40
2023-05-21T10:36:12.176Z,14.17
2023-05-21T10:38:40.846Z,14.73
2023-05-21T10:41:09.533Z,14.80
2023-05-21T10:43:47.265Z,12.80
2023-05-21T10:46:21.296Z,12.63
2023-05-21T10:49:00.190Z,11.47
2023-05-21T10:51:30.703Z,15.67
2023-05-21T10:54:18.071Z,14.50
2023-05-21T10:56:50.669Z,16.90
2023-05-21T10:59:27.574Z,22.60
2023-05-21T11:01:56.962Z,15.87
2023-05-21T11:04:27.889Z,14.97
2023-05-21T11:06:56.438Z,15.33
2023-05-21T11:09:26.550Z,13.67
2023-05-21T11:11:57.985Z,17.20
2023-05-21T11:14:36.256Z,13.73
2023-05-21T11:17:05.238Z,16.87
2023-05-21T11:19:37.814Z,20.83
2023-05-21T11:22:22.359Z,15.90
2023-05-21T11:24:51.488Z,20.53
2023-05-21T11:27:36.986Z,18.00
2023-05-21T11:30:08.653Z,15.50
2023-05-21T11:32:39.909Z,16.10
2023-05-21T11:35:09.016Z,16.83
2023-05-21T11:37:40.631Z,18.67
2023-05-21T11:40:18.871Z,16.60
2023-05-21T11:42:50.802Z,16.40
2023-05-21T11:45:21.424Z,21.23
2023-05-21T11:47:50.224Z,17.03
2023-05-21T11:50:18.944Z,16.33
2023-05-21T11:52:47.539Z,18.73
2023-05-21T11:55:16.695Z,15.17
2023-05-21T11:57:48.002Z,17.37
2023-05-21T12:00:17.044Z,25.63
2023-05-21T12:02:52.324Z,19.63
2023-05-21T12:05:20.879Z,19.80
2023-05-21T12:07:54.477Z,18.97
2023-05-21T12:10:23.583Z,17.80
2023-05-21T12:12:56.245Z,18.37
2023-05-21T12:15:25.913Z,19.47
2023-05-21T12:17:56.287Z,19.90
2023-05-21T12:20:28.148Z,19.43
2023-05-21T12:22:56.551Z,18.60
2023-05-21T12:25:24.831Z,16.83
2023-05-21T12:27:57.935Z,16.93
2023-05-21T12:30:26.868Z,26.50
2023-05-21T12:32:59.265Z,22.20
2023-05-21T12:35:27.772Z,19.40
2023-05-21T12:37:56.585Z,22.93
2023-05-21T12:40:36.625Z,17.80
2023-05-21T12:43:05.127Z,14.70
2023-05-21T12:45:34.592Z,17.60
2023-05-21T12:48:04.659Z,22.03
2023-05-21T12:50:35.569Z,24.13
2023-05-21T12:53:04.207Z,24.23
2023-05-21T12:55:33.566Z,16.53
2023-05-21T12:58:03.701Z,15.00
2023-05-21T13:00:32.244Z,17.67
2023-05-21T13:03:01.173Z,16.33
2023-05-21T13:05:30.882Z,15.80
2023-05-21T13:07:59.128Z,18.17
2023-05-21T13:10:27.408Z,17.80
2023-05-21T13:12:55.767Z,18.33
2023-05-21T13:15:24.057Z,17.17
2023-05-21T13:17:54.339Z,15.00
2023-05-21T13:20:26.604Z,17.00
2023-05-21T13:22:56.465Z,17.03
2023-05-21T13:25:28.632Z,18.90
2023-05-21T13:27:57.844Z,20.53
2023-05-21T13:30:26.084Z,21.63
2023-05-21T13:32:54.507Z,18.27
2023-05-21T13:35:23.218Z,18.57
2023-05-21T13:37:52.440Z,19.70
2023-05-21T13:40:22.204Z,22.60
2023-05-21T13:42:50.895Z,20.90
2023-05-21T13:45:19.894Z,17.40
2023-05-21T13:47:49.232Z,9.50
2023-05-21T13:50:17.646Z,18.70
2023-05-21T13:52:46.230Z,16.93
2023-05-21T13:55:15.784Z,16.90
2023-05-21T13:57:45.915Z,19.10
2023-05-21T14:00:15.808Z,22.30
2023-05-21T14:02:45.044Z,20.40
2023-05-21T14:05:13.739Z,20.70
2023-05-21T14:07:42.235Z,22.07
2023-05-21T14:10:11.197Z,22.37
2023-05-21T14:12:40.692Z,18.77
2023-05-21T14:15:10.973Z,16.90
2023-05-21T14:17:40.392Z,19.30
2023-05-21T14:20:09.519Z,15.07
2023-05-21T14:22:37.863Z,18.17
2023-05-21T14:25:06.375Z,15.97
2023-05-21T14:27:34.664Z,16.47
2023-05-21T14:30:02.962Z,19.27
2023-05-21T14:32:32.612Z,18.10
2023-05-21T14:35:01.065Z,15.07
2023-05-21T14:37:29.336Z,13.47
2023-05-21T14:39:57.549Z,15.07
2023-05-21T14:42:25.760Z,17.73
2023-05-21T14:44:53.985Z,15.83
2023-05-21T14:47:22.360Z,17.33
2023-05-21T14:49:52.041Z,18.93
2023-05-21T14:52:20.323Z,18.48
2023-05-21T14:54:48.582Z,17.70
2023-05-21T14:57:16.946Z,17.87
2023-05-21T14:59:45.203Z,17.40
2023-05-21T15:02:13.471Z,17.93
2023-05-21T15:04:41.799Z,19.37
2023-05-21T15:07:11.460Z,17.50
2023-05-21T15:09:39.736Z,18.67
2023-05-21T15:12:08.092Z,15.20
2023-05-21T15:14:36.363Z,17.37
2023-05-21T15:17:04.666Z,18.43
2023-05-21T15:19:33.060Z,18.90
2023-05-21T15:22:01.429Z,13.17
2023-05-21T15:24:31.076Z,13.20
2023-05-21T15:26:59.375Z,17.57
2023-05-21T15:29:27.941Z,16.57
2023-05-21T15:31:56.224Z,17.87
2023-05-21T15:34:24.589Z,12.10
2023-05-21T15:36:52.844Z,17.30
2023-05-21T15:39:21.434Z,17.73
2023-05-21T15:41:53.491Z,15.37
2023-05-21T15:44:21.858Z,14.13
2023-05-21T15:46:51.213Z,16.40
2023-05-21T15:49:19.540Z,19.00
2023-05-21T15:51:48.565Z,16.70
2023-05-21T15:54:16.833Z,18.30
2023-05-21T15:56:45.736Z,16.50
2023-05-21T15:59:15.370Z,15.13
2023-05-21T16:01:43.667Z,15.27
2023-05-21T16:04:11.975Z,16.37
2023-05-21T16:06:40.708Z,16.90
2023-05-21T16:09:08.945Z,17.63
2023-05-21T16:11:37.233Z,15.43
2023-05-21T16:14:06.471Z,15.70
2023-05-21T16:16:36.111Z,17.43
2023-05-21T16:19:04.403Z,16.20
2023-05-21T16:21:32.973Z,17.10
2023-05-21T16:24:01.489Z,16.80
2023-05-21T16:26:29.917Z,16.47
2023-05-21T16:28:58.857Z,15.40
2023-05-21T16:31:27.195Z,17.40
2023-05-21T16:33:56.809Z,15.77
2023-05-21T16:36:25.153Z,19.20
2023-05-21T16:38:53.687Z,17.77
2023-05-21T16:41:21.995Z,17.57
2023-05-21T16:43:53.101Z,16.07
2023-05-21T16:46:21.497Z,16.87
2023-05-21T16:48:49.753Z,17.10
2023-05-21T16:51:19.462Z,17.83
2023-05-21T16:53:47.749Z,18.30
2023-05-21T16:56:16.046Z,17.10
2023-05-21T16:58:44.348Z,16.37
2023-05-21T17:01:13.216Z,15.37
2023-05-21T17:03:43.356Z,14.90
2023-05-21T17:06:11.879Z,15.50
2023-05-21T17:08:42.416Z,15.70
2023-05-21T17:11:10.820Z,15.67
2023-05-21T17:13:39.112Z,16.63
2023-05-21T17:16:07.503Z,18.03
2023-05-21T17:18:35.793Z,16.70
2023-05-21T17:21:04.057Z,16.03
2023-05-21T17:23:33.325Z,17.53
2023-05-21T17:26:02.968Z,15.57
2023-05-21T17:28:31.244Z,16.67
2023-05-21T17:30:59.798Z,18.30
2023-05-21T17:33:28.204Z,16.70
2023-05-21T17:35:57.326Z,16.47
2023-05-21T17:38:25.946Z,16.40
2023-05-21T17:40:55.589Z,17.10
2023-05-21T17:43:26.665Z,17.10
2023-05-21T17:45:56.004Z,15.67
2023-05-21T17:48:24.282Z,15.90
2023-05-21T17:50:52.552Z,16.87
2023-05-21T17:53:20.851Z,16.73
2023-05-21T17:55:49.167Z,18.07
2023-05-21T17:58:17.937Z,15.30
2023-05-21T18:00:47.605Z,14.97
2023-05-21T18:03:15.942Z,16.40
2023-05-21T18:05:44.221Z,16.40
2023-05-21T18:08:12.484Z,15.63
2023-05-21T18:10:40.761Z,16.33
2023-05-21T18:13:09.065Z,14.67
2023-05-21T18:15:37.585Z,15.60
2023-05-21T18:18:07.592Z,15.60
2023-05-21T18:20:36.115Z,16.07
2023-05-21T18:23:04.533Z,15.77
2023-05-21T18:25:32.793Z,14.93
2023-05-21T18:28:01.073Z,16.50
2023-05-21T18:30:29.460Z,15.17
2023-05-21T18:32:57.719Z,16.03
2023-05-21T18:35:27.732Z,16.03
2023-05-21T18:37:56.062Z,15.57
2023-05-21T18:40:25.672Z,16.33
2023-05-21T18:42:53.970Z,15.23
2023-05-21T18:45:22.241Z,16.10
2023-05-21T18:47:50.684Z,17.20
2023-05-21T18:50:20.536Z,16.33
2023-05-21T18:52:51.587Z,15.40
2023-05-21T18:55:19.923Z,14.37
2023-05-21T18:57:48.139Z,15.67
2023-05-21T19:00:16.513Z,14.80
2023-05-21T19:02:46.741Z,15.40
2023-05-21T19:05:15.632Z,16.20
2023-05-21T19:07:46.200Z,16.10
2023-05-21T19:10:16.060Z,16.70
2023-05-21T19:12:44.620Z,14.87
2023-05-21T19:15:13.345Z,16.67
2023-05-21T19:17:41.625Z,16.40
2023-05-21T19:20:10.613Z,15.77
2023-05-21T19:22:38.882Z,15.67
2023-05-21T19:25:07.710Z,14.27
2023-05-21T19:27:37.339Z,15.80
2023-05-21T19:30:05.904Z,17.40
2023-05-21T19:32:34.251Z,15.90
2023-05-21T19:35:04.578Z,18.80
2023-05-21T19:37:33.057Z,16.70
2023-05-21T19:40:01.402Z,19.90
2023-05-21T19:42:29.773Z,17.83
2023-05-21T19:44:59.382Z,16.00
2023-05-21T19:47:28.476Z,17.20
2023-05-21T19:49:56.803Z,16.93
2023-05-21T19:52:26.167Z,19.80
2023-05-21T19:54:54.440Z,18.50
2023-05-21T19:57:22.727Z,19.87
2023-05-21T19:59:50.943Z,15.60
2023-05-21T20:02:22.063Z,17.17
2023-05-21T20:04:50.883Z,19.13
2023-05-21T20:07:19.168Z,18.20
2023-05-21T20:09:47.452Z,14.27
2023-05-21T20:12:16.340Z,15.63
2023-05-21T20:14:46.769Z,18.53
2023-05-21T20:17:15.366Z,20.03
2023-05-21T20:19:48.045Z,16.50
2023-05-21T20:22:17.775Z,18.30
2023-05-21T20:24:46.157Z,20.03
2023-05-21T20:27:14.865Z,18.17
2023-05-21T20:29:43.950Z,18.60
2023-05-21T20:32:12.529Z,19.53
2023-05-21T20:34:54.263Z,21.47
2023-05-21T20:37:32.311Z,19.93
2023-05-21T20:40:00.717Z,18.30
2023-05-21T20:42:34.070Z,18.17
2023-05-21T20:45:03.004Z,20.57
2023-05-21T20:47:31.392Z,19.47
2023-05-21T20:50:02.733Z,19.10
2023-05-21T20:52:32.330Z,18.70
2023-05-21T20:55:01.343Z,19.83
2023-05-21T20:57:30.087Z,21.53
2023-05-21T20:59:58.298Z,20.53
2023-05-21T21:02:26.972Z,20.93
2023-05-21T21:04:56.286Z,21.03
2023-05-21T21:07:24.558Z,20.30
2023-05-21T21:09:54.170Z,19.30
2023-05-21T21:12:26.366Z,19.10
2023-05-21T21:14:55.366Z,18.70
2023-05-21T21:17:23.698Z,20.40
2023-05-21T21:19:51.973Z,19.07
2023-05-21T21:22:20.941Z,21.80
2023-05-21T21:24:49.240Z,18.80
2023-05-21T21:27:18.879Z,21.10
2023-05-21T21:29:47.358Z,20.83
2023-05-21T21:32:15.626Z,20.87
2023-05-21T21:34:44.085Z,23.13
2023-05-21T21:37:13.364Z,24.27
2023-05-21T21:39:42.291Z,23.53
2023-05-21T21:42:10.617Z,23.53
2023-05-21T21:44:40.238Z,22.20
2023-05-21T21:47:08.535Z,23.07
2023-05-21T21:49:36.755Z,24.70
2023-05-21T21:52:07.048Z,23.90
2023-05-21T21:54:35.302Z,23.27
2023-05-21T21:57:03.670Z,22.27
2023-05-21T21:59:32.097Z,23.70
2023-05-21T22:02:01.726Z,25.00
2023-05-21T22:04:29.996Z,25.90
2023-05-21T22:06:58.604Z,25.63
2023-05-21T22:09:26.968Z,24.37
2023-05-21T22:11:55.466Z,25.23
2023-05-21T22:14:23.912Z,24.80
2023-05-21T22:16:53.272Z,25.37
2023-05-21T22:19:24.145Z,26.17
2023-05-21T22:21:54.005Z,23.07
2023-05-21T22:24:32.156Z,23.50
2023-05-21T22:27:01.596Z,23.73
2023-05-21T22:29:29.855Z,23.33
2023-05-21T22:31:58.177Z,24.20
2023-05-21T22:34:27.753Z,23.43
2023-05-21T22:36:56.541Z,26.10
2023-05-21T22:39:24.783Z,23.23
2023-05-21T22:41:53.172Z,24.43
2023-05-21T22:44:21.417Z,24.20
2023-05-21T22:46:49.744Z,24.43
2023-05-21T22:49:18.048Z,24.70
2023-05-21T22:51:47.757Z,24.10
2023-05-21T22:54:15.992Z,22.37
2023-05-21T22:56:44.986Z,24.37
2023-05-21T22:59:13.250Z,25.10
2023-05-21T23:01:41.503Z,24.30
2023-05-21T23:04:09.810Z,26.00
2023-05-21T23:06:38.024Z,24.87
2023-05-21T23:09:07.788Z,25.50
2023-05-21T23:11:36.066Z,26.70
2023-05-21T23:14:04.362Z,25.10
2023-05-21T23:16:32.680Z,26.67
2023-05-21T23:19:01.178Z,26.23
2023-05-21T23:21:29.534Z,26.57
2023-05-21T23:23:57.890Z,25.47
2023-05-21T23:26:28.574Z,24.83
2023-05-21T23:28:56.864Z,24.67
2023-05-21T23:31:25.220Z,24.87
2023-05-21T23:33:53.614Z,25.00
2023-05-21T23:36:22.016Z,25.03
2023-05-21T23:38:50.299Z,24.50
2023-05-21T23:41:18.634Z,25.77
2023-05-21T23:43:48.254Z,24.73
2023-05-21T23:46:16.698Z,24.80
2023-05-21T23:48:45.094Z,25.23
2023-05-21T23:51:13.476Z,24.50
2023-05-21T23:53:41.698Z,23.93
2023-05-21T23:56:10.936Z,26.63
2023-05-21T23:58:39.135Z,25.53
